Brookings, OR

1:12 AM PST on February 12, 2016 (GMT -0800)
Brookings | | Change Station
CLOSE
Current Station
Airport
Location: Brookings,
Elevation: 459 ft
Nearby Weather Stations

Elev 459 ft 42.07 °N, 124.29 °W | Updated 16 minutes ago

Overcast
Overcast
55 °F
Feels Like 55 °F
N
4
Wind Variable Wind from SSE

Today
High -- | Low -- °F
--% Chance of Precip.
Yesterday
High -- | Low -- °F
Precip. -- in
Pressure 30.25 in
Visibility 10.0 miles
Clouds Overcast 1900 ft
Dew Point 50 °F
Humidity 83%
Rainfall 0.00 in
Snow Depth Not available.
7:17 AM 5:45 PM
Waxing Crescent, 19% visible
METAR KBOK 120856Z AUTO 15003KT 10SM OVC019 13/10 A3021 RMK AO2 SLP243 T01280100 53005 TSNO
Pressure 30.25 in
Visibility 10.0 miles
Clouds Overcast 1900 ft
Dew Point 50 °F
Humidity 83%
Rainfall 0.00 in
Snow Depth Not available.
7:17 AM 5:45 PM
Waxing Crescent, 19% visible
METAR KBOK 120856Z AUTO 15003KT 10SM OVC019 13/10 A3021 RMK AO2 SLP243 T01280100 53005 TSNO

10-Day Weather Forecast

Almanac

Astronomy

Feb. 12, 2016 Rise Set
Actual Time
Civil Twilight
Nautical Twilight
Astronomical Twilight
Moon
Length of Visible Light
Length of Day
Tomorrow will be .
, % of the Moon is Illuminated

Today's Extremes

State Highs State Lows

Community

WunderPhotos

Upload Photos

1,892,286 photos uploaded!

WunderBlog® & News

Nearby

Air Quality

  Air Quality AQ Index Pollutant
Not available.

Snow Depth

Station Depth Elevation

Earthquake Activity

City Distance Mag. Time & Date
Minimum magnitude displayed is 2.5.

Coastal Water Temperatures

Place Temperature

Stations

Nearby Weather Stations

Station Location Temp. Windchill Dew Point Humidity Wind Precip. Elev Updated Type
                   

Watches & Warnings

There are currently no watches in effect.